Pagrindinis puslapis
METAR-TAF:

METAR-TAF

Oro uostai :

Kirkenesas, Norvegija

platuma: 69-44N, ilguma: 029-54E, Aukštis: 9 m

Dabartinis oras

Ataskaita buvo paskelbta 21 minutes, ne 02:20 UTC
Vėjas 10 kt iš Pietvakarių
Temperatūra -4°C
Drėgmė 63%
Slėgis 1003 hPa
Matomumas 10 km arba daugiau
nėra debesų žemiau 1500 m ir nėra kamuolinių lietaus debesų

METAR: ENKR 140220Z 23010KT CAVOK M04/M10 Q1003 RMK WIND 731FT 25016KT

Laikas: 04:41 (02:41 UTC)

Prognozė

Ataskaita buvo paskelbta 41 minutes, ne 02:00 UTC
Prognozė galioja nuo 14 metu 03 UTC su 14 metu 12 UTC
Vėjas 12 kt iš Vakarų/Pietvakarių
Matomumas 10 km arba daugiau
Išsisklaidę debesys ne aukštis 4000 ft
Laikinai
nuo 14 metu 08 UTC su 14 metu 10 UTC
Matomumas: 2000 m
ne aukštis 1200 ft
sniegas

TAF: ENKR 140200Z 1403/1412 25012KT 9999 SCT040 TEMPO 1408/1410 2000 SHSN VV012

Orai ataskaitas ir orų prognozės (METAR, TAF).

turimą stotys yra geltonos ir raudonos taškus žemėlapyje.

Perkelti pele per norėdami pamatyti stoties vardą.

Tada spustelėkite, norėdami matyti oro stebėjimo ir prognozės.

Norėdami pakeisti žemėlapį: spustelėkite ant žalios mygtukų su juodo kryžiaus žemyn,; žalią mygtuką su brūkšneliu, jei norite nutolinti; arba žalių rodyklių gretimoms žemėlapius.


METAR-TAF: